Time;durP1;ratioP1;P1;durP2;ratioP2;P2;SDS_P1;SDS_P2;PMS_P1;PMS_P2;Temp;Humidity;BMP_temperature;BMP_pressure;BME280_temperature;BME280_humidity;BME280_pressure;Samples;Min_cycle;Max_cycle;Signal;HPM_P1;HPM_P2
2023/09/30 00:00:26;;;;;;;52.63;48.17;;;11.10;99.90;;;;;;6219018;23;20008;-83
2023/09/30 00:02:52;;;;;;;59.25;54.63;;;11.10;99.90;;;;;;6193205;23;20091;-83
2023/09/30 00:05:19;;;;;;;43.95;39.70;;;11.10;99.90;;;;;;6218524;23;20058;-84
2023/09/30 00:07:46;;;;;;;52.35;47.92;;;11.10;99.90;;;;;;6193232;23;20016;-84
2023/09/30 00:10:11;;;;;;;58.35;53.40;;;11.10;99.90;;;;;;6218310;23;20019;-84
2023/09/30 00:12:37;;;;;;;49.70;44.92;;;11.10;99.90;;;;;;6245246;23;20004;-84
2023/09/30 00:15:04;;;;;;;50.40;46.03;;;11.00;99.90;;;;;;6193169;23;20020;-83
2023/09/30 00:17:30;;;;;;;54.38;49.00;;;11.00;99.90;;;;;;6218841;23;20016;-84
2023/09/30 00:19:55;;;;;;;53.85;48.85;;;11.00;99.90;;;;;;6219320;23;20443;-84
2023/09/30 00:22:21;;;;;;;49.72;45.08;;;11.00;99.90;;;;;;6193446;23;20431;-84
2023/09/30 00:24:47;;;;;;;55.50;50.50;;;11.00;99.90;;;;;;6218442;23;20004;-84
2023/09/30 00:27:13;;;;;;;55.22;49.88;;;10.90;99.90;;;;;;6192482;23;20111;-84
2023/09/30 00:29:38;;;;;;;50.20;45.88;;;11.50;99.90;;;;;;6218902;23;20516;-83
2023/09/30 00:32:04;;;;;;;53.75;49.22;;;10.90;99.90;;;;;;6193835;23;20142;-83
2023/09/30 00:34:34;;;;;;;57.30;52.15;;;10.90;99.90;;;;;;6193720;23;20103;-82
2023/09/30 00:37:00;;;;;;;45.75;41.38;;;10.90;99.90;;;;;;6193344;23;20026;-83
2023/09/30 00:39:29;;;;;;;51.45;46.78;;;10.80;99.90;;;;;;6193292;23;20604;-83
2023/09/30 00:41:56;;;;;;;46.50;42.15;;;11.10;99.90;;;;;;6244575;23;20058;-83
2023/09/30 00:44:22;;;;;;;49.78;45.75;;;10.90;99.90;;;;;;6218336;23;20016;-83
2023/09/30 00:46:48;;;;;;;45.30;40.75;;;11.30;99.90;;;;;;6193300;23;20059;-83
2023/09/30 00:49:14;;;;;;;44.08;39.97;;;11.00;99.90;;;;;;6218225;23;20012;-83
2023/09/30 00:51:40;;;;;;;48.75;44.22;;;11.10;99.90;;;;;;6193071;23;20088;-83
2023/09/30 00:54:07;;;;;;;46.15;42.25;;;11.10;99.90;;;;;;6193295;23;20019;-83
2023/09/30 00:56:33;;;;;;;40.97;37.03;;;11.10;99.90;;;;;;6217583;23;20019;-83
2023/09/30 00:58:59;;;;;;;44.65;41.05;;;11.20;99.90;;;;;;6193188;23;20019;-83
2023/09/30 01:01:25;;;;;;;43.58;39.72;;;11.10;99.90;;;;;;6218244;23;20335;-84
2023/09/30 01:03:51;;;;;;;42.13;38.15;;;11.00;99.90;;;;;;6244937;23;20008;-83
2023/09/30 01:06:17;;;;;;;55.58;51.15;;;11.20;99.90;;;;;;6217811;23;20016;-83
2023/09/30 01:08:43;;;;;;;47.60;43.08;;;11.00;99.90;;;;;;6192587;23;20316;-83
2023/09/30 01:11:09;;;;;;;50.08;44.63;;;11.00;99.90;;;;;;6217526;23;20023;-83
2023/09/30 01:13:35;;;;;;;50.60;46.20;;;11.00;99.90;;;;;;6218098;23;20091;-83
2023/09/30 01:16:12;;;;;;;55.75;50.72;;;11.10;99.90;;;;;;6243010;23;20016;-83
2023/09/30 01:18:41;;;;;;;49.55;45.35;;;10.90;99.90;;;;;;6193654;23;20495;-84
2023/09/30 01:21:08;;;;;;;54.92;50.88;;;10.90;99.90;;;;;;6192929;23;20008;-82
2023/09/30 01:23:35;;;;;;;50.42;45.45;;;11.00;99.90;;;;;;6217391;23;20023;-84
2023/09/30 01:26:03;;;;;;;51.80;46.83;;;11.00;99.90;;;;;;6216873;23;20020;-83
2023/09/30 01:28:30;;;;;;;45.78;41.65;;;11.00;99.90;;;;;;6217127;23;20016;-83
2023/09/30 01:30:56;;;;;;;45.92;42.03;;;11.00;99.90;;;;;;6217580;23;20020;-83
2023/09/30 01:33:22;;;;;;;47.10;42.97;;;11.20;99.90;;;;;;6192073;23;20008;-83
2023/09/30 01:35:47;;;;;;;48.78;44.70;;;11.20;99.90;;;;;;6217742;23;20016;-83
2023/09/30 01:38:13;;;;;;;47.15;42.60;;;11.00;99.90;;;;;;6217151;23;20023;-83
2023/09/30 01:40:39;;;;;;;42.47;38.50;;;11.30;99.90;;;;;;6216636;23;20153;-83
2023/09/30 01:43:05;;;;;;;46.20;42.55;;;11.00;99.90;;;;;;6217458;23;20008;-83
2023/09/30 01:45:30;;;;;;;46.97;42.80;;;11.00;99.90;;;;;;6191723;23;20012;-83
2023/09/30 01:47:56;;;;;;;41.95;38.20;;;11.10;99.90;;;;;;6217018;23;20008;-83
2023/09/30 01:50:21;;;;;;;42.63;38.90;;;11.10;99.90;;;;;;6191948;23;20383;-83
2023/09/30 01:52:47;;;;;;;43.85;40.40;;;11.10;99.90;;;;;;6216844;23;20200;-83
2023/09/30 01:55:13;;;;;;;43.38;39.30;;;11.10;99.90;;;;;;6216556;23;20486;-83
2023/09/30 01:57:38;;;;;;;42.33;37.90;;;11.10;99.90;;;;;;6191801;23;20016;-84
2023/09/30 02:00:05;;;;;;;48.03;44.03;;;11.30;99.90;;;;;;6242648;23;20046;-84
2023/09/30 02:02:31;;;;;;;44.63;40.33;;;11.10;99.90;;;;;;6216925;23;20009;-83
2023/09/30 02:04:57;;;;;;;41.65;37.50;;;11.20;99.90;;;;;;6216547;23;20039;-82
2023/09/30 02:07:22;;;;;;;45.03;40.90;;;11.20;99.90;;;;;;6191778;23;20012;-83
2023/09/30 02:09:49;;;;;;;37.40;33.85;;;11.30;99.90;;;;;;6191190;23;20494;-84
2023/09/30 02:12:14;;;;;;;40.08;35.40;;;11.90;99.90;;;;;;6216417;23;20050;-83
2023/09/30 02:14:40;;;;;;;33.65;30.55;;;11.40;99.90;;;;;;6216427;23;20016;-83
2023/09/30 02:17:06;;;;;;;37.78;34.08;;;11.60;99.90;;;;;;6185673;23;20020;-83
2023/09/30 02:19:33;;;;;;;39.75;36.17;;;11.40;99.90;;;;;;6186773;23;20343;-83
2023/09/30 02:22:00;;;;;;;34.78;31.48;;;11.40;99.90;;;;;;6186548;23;20021;-83
2023/09/30 02:24:25;;;;;;;33.08;29.77;;;11.40;99.90;;;;;;6185949;23;20284;-83
2023/09/30 02:26:51;;;;;;;32.60;27.42;;;11.80;99.90;;;;;;6186421;23;20040;-83
2023/09/30 02:29:17;;;;;;;29.85;26.83;;;11.40;99.90;;;;;;6211414;23;20084;-83
2023/09/30 02:31:42;;;;;;;33.50;29.63;;;11.50;99.90;;;;;;6211325;23;20017;-83
2023/09/30 02:34:08;;;;;;;40.35;36.97;;;11.60;99.90;;;;;;6211808;23;20021;-83
2023/09/30 02:36:39;;;;;;;34.53;27.88;;;11.50;99.90;;;;;;6186356;23;20466;-83
2023/09/30 02:39:04;;;;;;;29.27;26.23;;;11.50;99.90;;;;;;6185816;23;20012;-83
2023/09/30 02:41:30;;;;;;;38.25;34.88;;;11.50;99.90;;;;;;6186341;23;20043;-83
2023/09/30 02:43:56;;;;;;;33.40;29.65;;;11.50;99.90;;;;;;6187040;23;20383;-84
2023/09/30 02:46:22;;;;;;;33.00;29.90;;;11.50;99.90;;;;;;6188488;23;20035;-83
2023/09/30 02:48:47;;;;;;;36.65;33.20;;;11.40;99.90;;;;;;6188460;23;20078;-83
2023/09/30 02:51:14;;;;;;;31.63;28.83;;;11.50;99.90;;;;;;6188864;23;20013;-83
2023/09/30 02:53:40;;;;;;;41.50;34.17;;;11.50;99.90;;;;;;6188011;23;20028;-83
2023/09/30 02:56:06;;;;;;;35.63;32.40;;;11.60;99.90;;;;;;6188019;23;20023;-84
2023/09/30 02:58:32;;;;;;;33.83;28.58;;;11.60;99.90;;;;;;6188048;23;20023;-83
2023/09/30 03:00:59;;;;;;;36.15;32.35;;;11.60;99.90;;;;;;6188209;23;20336;-83
2023/09/30 03:03:25;;;;;;;34.25;30.67;;;11.70;99.90;;;;;;6188310;23;20024;-82
2023/09/30 03:05:51;;;;;;;30.13;26.88;;;11.70;99.90;;;;;;6188455;23;20110;-83
2023/09/30 03:08:17;;;;;;;31.42;25.17;;;11.70;99.90;;;;;;6213532;23;20056;-83
2023/09/30 03:10:43;;;;;;;29.42;24.15;;;12.30;99.90;;;;;;6188656;23;20020;-83
2023/09/30 03:13:08;;;;;;;31.30;25.00;;;11.70;99.90;;;;;;6188447;23;20019;-84
2023/09/30 03:15:35;;;;;;;36.92;28.17;;;11.70;99.90;;;;;;6196039;23;20016;-84
2023/09/30 03:18:01;;;;;;;32.28;29.15;;;11.90;99.90;;;;;;6193937;23;20016;-83
2023/09/30 03:20:27;;;;;;;33.70;30.20;;;11.70;99.90;;;;;;6193077;23;20023;-83
2023/09/30 03:22:53;;;;;;;34.13;30.92;;;11.60;99.90;;;;;;6194082;23;20055;-83
2023/09/30 03:25:20;;;;;;;31.77;28.73;;;12.00;99.90;;;;;;6243229;23;20012;-83
2023/09/30 03:27:46;;;;;;;33.15;29.80;;;12.10;99.90;;;;;;6218435;23;20019;-83
2023/09/30 03:30:15;;;;;;;37.30;30.08;;;11.60;99.90;;;;;;6193473;23;20012;-83
2023/09/30 03:32:41;;;;;;;38.17;30.73;;;11.60;99.90;;;;;;6193590;23;20011;-83
2023/09/30 03:35:10;;;;;;;34.40;29.52;;;11.60;99.90;;;;;;6218238;23;20024;-83
2023/09/30 03:37:41;;;;;;;30.00;27.05;;;11.70;99.90;;;;;;6218451;23;20095;-83
2023/09/30 03:40:19;;;;;;;34.33;30.95;;;11.70;99.90;;;;;;6193096;23;20016;-83
2023/09/30 03:42:49;;;;;;;32.65;29.20;;;11.70;99.90;;;;;;6193414;23;20015;-83
2023/09/30 03:45:15;;;;;;;34.58;29.05;;;11.70;99.90;;;;;;6217678;23;20406;-84
2023/09/30 03:47:41;;;;;;;32.90;29.13;;;11.70;99.90;;;;;;6193382;23;20013;-83
2023/09/30 03:50:14;;;;;;;32.80;28.55;;;11.70;99.90;;;;;;6217635;23;20435;-83
2023/09/30 03:52:44;;;;;;;41.45;37.70;;;11.70;99.90;;;;;;6243030;23;20016;-83
2023/09/30 03:55:15;;;;;;;36.65;32.72;;;11.60;99.90;;;;;;6192839;23;20050;-83
2023/09/30 03:57:40;;;;;;;35.55;32.03;;;11.60;99.90;;;;;;6217725;23;20023;-83
2023/09/30 04:00:07;;;;;;;35.15;31.55;;;11.50;99.90;;;;;;6242472;23;20103;-84
2023/09/30 04:02:33;;;;;;;34.72;30.52;;;11.50;99.90;;;;;;6167485;23;20458;-83
2023/09/30 04:04:59;;;;;;;35.47;31.70;;;11.50;99.90;;;;;;6216852;23;20024;-83
2023/09/30 04:07:27;;;;;;;37.10;33.45;;;11.50;99.90;;;;;;6243320;23;20043;-84
2023/09/30 04:09:56;;;;;;;36.22;32.63;;;11.50;99.90;;;;;;6243154;23;20058;-83
2023/09/30 04:12:25;;;;;;;36.15;32.65;;;11.40;99.90;;;;;;6243141;23;20141;-83
2023/09/30 04:14:52;;;;;;;37.88;33.83;;;11.40;99.90;;;;;;6218018;23;20019;-83
2023/09/30 04:17:17;;;;;;;33.95;30.27;;;11.40;99.90;;;;;;6217307;23;20448;-83
2023/09/30 04:19:43;;;;;;;42.63;37.70;;;11.50;99.90;;;;;;6217820;23;20016;-83
2023/09/30 04:22:09;;;;;;;37.92;34.15;;;11.30;99.90;;;;;;6243855;23;20038;-83
2023/09/30 04:24:34;;;;;;;41.38;37.67;;;11.30;99.90;;;;;;6193036;23;20016;-84
2023/09/30 04:27:03;;;;;;;39.85;32.95;;;11.30;99.90;;;;;;6242963;23;20061;-83
2023/09/30 04:29:29;;;;;;;44.47;39.63;;;11.80;99.90;;;;;;6193172;23;20023;-83
2023/09/30 04:31:56;;;;;;;40.55;36.88;;;11.30;99.90;;;;;;6217979;23;20039;-84
2023/09/30 04:34:22;;;;;;;36.30;32.25;;;11.30;99.90;;;;;;6217687;23;20083;-84
2023/09/30 04:36:48;;;;;;;37.80;33.78;;;11.30;99.90;;;;;;6192551;23;20051;-83
2023/09/30 04:39:14;;;;;;;45.17;40.80;;;11.30;99.90;;;;;;6242969;23;20016;-83
2023/09/30 04:41:43;;;;;;;35.92;32.42;;;11.60;99.90;;;;;;6217963;23;20019;-84
2023/09/30 04:44:09;;;;;;;43.88;39.58;;;11.30;99.90;;;;;;6217472;23;20012;-83
2023/09/30 04:46:40;;;;;;;42.58;37.08;;;11.50;99.90;;;;;;6193699;23;20123;-83
2023/09/30 04:49:07;;;;;;;42.13;38.10;;;11.30;99.90;;;;;;6217230;23;20078;-83
2023/09/30 04:51:34;;;;;;;41.60;37.50;;;12.10;99.90;;;;;;6192520;23;20016;-83
2023/09/30 04:53:59;;;;;;;43.55;37.80;;;11.20;99.90;;;;;;6243279;23;20012;-83
2023/09/30 04:56:25;;;;;;;39.63;35.88;;;11.20;99.90;;;;;;6218019;23;20020;-83
2023/09/30 04:58:51;;;;;;;41.03;36.50;;;11.30;99.90;;;;;;6192819;23;20012;-83
2023/09/30 05:01:18;;;;;;;40.28;36.13;;;11.30;99.90;;;;;;6243527;23;20324;-83
2023/09/30 05:03:50;;;;;;;46.92;42.85;;;11.20;99.90;;;;;;6192740;23;20168;-84
2023/09/30 05:06:16;;;;;;;44.92;39.78;;;11.20;99.90;;;;;;6192582;23;20046;-84
2023/09/30 05:08:42;;;;;;;42.00;37.53;;;11.20;99.90;;;;;;6216598;23;20050;-83
2023/09/30 05:11:08;;;;;;;43.17;37.47;;;11.20;99.90;;;;;;6217212;23;20435;-83
2023/09/30 05:13:36;;;;;;;44.22;39.70;;;11.60;99.90;;;;;;6192490;23;20023;-84
2023/09/30 05:16:03;;;;;;;42.53;38.72;;;11.10;99.90;;;;;;6242883;23;20024;-84
2023/09/30 05:18:29;;;;;;;45.17;40.53;;;11.10;99.90;;;;;;6242621;23;20024;-84
2023/09/30 05:20:56;;;;;;;45.35;36.95;;;11.50;99.90;;;;;;6243164;23;20083;-83
2023/09/30 05:23:22;;;;;;;48.05;43.63;;;11.00;99.90;;;;;;6218114;23;20035;-84
2023/09/30 05:25:47;;;;;;;46.70;41.83;;;11.00;99.90;;;;;;6193369;23;20016;-84
2023/09/30 05:28:13;;;;;;;44.35;39.85;;;11.30;99.90;;;;;;6193008;23;20004;-83
2023/09/30 05:30:40;;;;;;;40.67;36.97;;;11.00;99.90;;;;;;6217661;23;20036;-84
2023/09/30 05:33:06;;;;;;;47.53;43.08;;;10.90;99.90;;;;;;6217158;23;20012;-84
2023/09/30 05:35:32;;;;;;;46.85;42.63;;;11.20;99.90;;;;;;6193008;23;20012;-84
2023/09/30 05:37:58;;;;;;;43.28;38.92;;;10.90;99.90;;;;;;6217274;23;20016;-84
2023/09/30 05:40:30;;;;;;;47.13;42.17;;;11.00;99.90;;;;;;6217475;23;20015;-83
2023/09/30 05:43:00;;;;;;;48.42;43.47;;;10.80;99.90;;;;;;6192683;23;20050;-84
2023/09/30 05:45:27;;;;;;;52.95;47.92;;;10.80;99.90;;;;;;6192729;23;20023;-83
2023/09/30 05:47:56;;;;;;;48.50;44.17;;;10.80;99.90;;;;;;6190413;23;20019;-83
2023/09/30 05:50:26;;;;;;;46.47;42.78;;;10.90;99.90;;;;;;6216048;23;20012;-83
2023/09/30 05:52:53;;;;;;;47.33;42.75;;;10.80;99.90;;;;;;6215999;23;20087;-84
2023/09/30 05:55:22;;;;;;;44.17;40.00;;;11.30;99.90;;;;;;6190401;23;20078;-82
2023/09/30 05:57:50;;;;;;;45.63;41.25;;;10.80;99.90;;;;;;6217270;23;20469;-84
2023/09/30 06:00:23;;;;;;;45.05;41.05;;;10.90;99.90;;;;;;6241692;23;20023;-84
2023/09/30 06:02:51;;;;;;;56.25;50.88;;;10.90;99.90;;;;;;6192538;23;20431;-82
2023/09/30 06:05:18;;;;;;;48.45;44.22;;;10.90;99.90;;;;;;6192121;23;20020;-84
2023/09/30 06:07:48;;;;;;;40.05;35.97;;;11.40;99.90;;;;;;6192295;23;20097;-84
2023/09/30 06:10:18;;;;;;;49.28;44.22;;;10.90;99.90;;;;;;6217747;23;20016;-85
2023/09/30 06:12:48;;;;;;;45.63;41.55;;;10.90;99.90;;;;;;6242442;23;20019;-84
2023/09/30 06:15:21;;;;;;;42.63;37.78;;;10.90;99.90;;;;;;6241974;23;20469;-84
2023/09/30 06:17:48;;;;;;;;;;;10.90;99.90;;;;;;6243185;23;20073;-85
2023/09/30 06:20:17;;;;;;;43.20;39.53;;;11.00;99.90;;;;;;6242379;23;19911;-84
2023/09/30 06:22:49;;;;;;;47.13;43.00;;;11.00;99.90;;;;;;6192362;23;20012;-84
2023/09/30 06:25:18;;;;;;;50.50;45.92;;;11.80;99.90;;;;;;6191830;23;20391;-85
2023/09/30 06:27:47;;;;;;;42.10;37.95;;;11.10;99.90;;;;;;6192046;23;20020;-84
2023/09/30 06:30:15;;;;;;;40.13;36.28;;;11.10;99.90;;;;;;6191211;23;20012;-84
2023/09/30 06:32:42;;;;;;;45.08;40.67;;;11.20;99.90;;;;;;6191836;23;20062;-84
2023/09/30 06:35:10;;;;;;;43.78;39.65;;;11.30;99.90;;;;;;6191445;23;20019;-85
2023/09/30 06:37:40;;;;;;;42.38;35.70;;;11.30;99.90;;;;;;6191368;23;20153;-84
2023/09/30 06:40:08;;;;;;;41.05;37.08;;;11.40;99.90;;;;;;6242269;23;20012;-85
2023/09/30 06:42:37;;;;;;;44.60;39.08;;;11.40;99.90;;;;;;6215904;23;20009;-84
2023/09/30 06:45:05;;;;;;;37.05;33.15;;;11.60;99.90;;;;;;6215817;23;20016;-85
2023/09/30 06:47:38;;;;;;;34.58;31.27;;;11.60;99.90;;;;;;6191353;23;20021;-85
2023/09/30 06:50:08;;;;;;;38.47;34.63;;;11.50;99.90;;;;;;6217454;23;20012;-84
2023/09/30 06:52:36;;;;;;;34.25;30.67;;;11.90;99.90;;;;;;6240773;23;20486;-84
2023/09/30 06:55:06;;;;;;;37.53;30.30;;;12.00;99.90;;;;;;6221484;23;20016;-85
2023/09/30 06:57:36;;;;;;;31.30;27.42;;;12.10;99.90;;;;;;6218347;23;20012;-84
2023/09/30 07:00:09;;;;;;;31.67;28.48;;;12.20;99.90;;;;;;6215952;23;20035;-85
2023/09/30 07:02:36;;;;;;;;;;;12.40;99.90;;;;;;6192582;23;20027;-85
2023/09/30 07:05:05;;;;;;;37.25;33.55;;;12.50;99.90;;;;;;6241420;23;19916;-85
2023/09/30 07:07:31;;;;;;;37.63;31.48;;;12.60;99.90;;;;;;6191140;23;20008;-85
2023/09/30 07:09:56;;;;;;;31.15;27.65;;;12.70;99.90;;;;;;6215786;23;20043;-84
2023/09/30 07:12:22;;;;;;;34.55;28.83;;;12.80;99.90;;;;;;6215549;23;20016;-84
2023/09/30 07:14:48;;;;;;;40.08;29.38;;;12.90;99.90;;;;;;6215723;23;20012;-85
2023/09/30 07:17:14;;;;;;;35.20;21.25;;;13.00;99.90;;;;;;6216243;23;20020;-85
2023/09/30 07:19:39;;;;;;;31.25;20.42;;;13.20;99.90;;;;;;6214268;23;20031;-83
2023/09/30 07:22:05;;;;;;;32.05;27.45;;;13.30;99.90;;;;;;6189641;23;20078;-82
2023/09/30 07:24:31;;;;;;;42.95;24.05;;;13.40;99.90;;;;;;6240811;23;20016;-82
2023/09/30 07:26:57;;;;;;;30.48;17.25;;;13.50;99.90;;;;;;6189473;23;20012;-83
2023/09/30 07:29:23;;;;;;;37.78;23.00;;;13.60;99.90;;;;;;6189549;23;20016;-83
2023/09/30 07:31:50;;;;;;;36.45;28.90;;;13.70;99.90;;;;;;6190370;23;20051;-82
2023/09/30 07:34:16;;;;;;;30.40;22.17;;;13.80;99.90;;;;;;6240514;23;20066;-82
2023/09/30 07:36:42;;;;;;;29.45;22.15;;;13.90;99.90;;;;;;6240169;23;20016;-83
2023/09/30 07:39:08;;;;;;;22.58;17.50;;;13.90;99.90;;;;;;6214815;23;20027;-82
2023/09/30 07:41:37;;;;;;;23.98;21.52;;;14.00;99.90;;;;;;6189101;23;20497;-82
2023/09/30 07:44:04;;;;;;;29.05;23.23;;;14.00;99.90;;;;;;6215379;23;20295;-82
2023/09/30 07:46:30;;;;;;;34.05;23.83;;;14.00;99.90;;;;;;6239871;23;20131;-82
2023/09/30 07:48:56;;;;;;;24.65;19.23;;;14.00;99.90;;;;;;6221047;23;20066;-84
2023/09/30 07:51:22;;;;;;;27.13;22.83;;;13.60;99.90;;;;;;6195047;23;20051;-84
2023/09/30 07:53:47;;;;;;;25.45;17.52;;;14.10;99.90;;;;;;6192205;23;20019;-84
2023/09/30 07:56:14;;;;;;;27.40;23.27;;;14.20;99.90;;;;;;6191932;23;20102;-83
2023/09/30 07:58:39;;;;;;;29.75;25.50;;;14.20;99.90;;;;;;6215753;23;20020;-83
2023/09/30 08:01:07;;;;;;;28.27;24.95;;;14.30;99.90;;;;;;6242283;23;20040;-84
2023/09/30 08:03:33;;;;;;;28.13;21.08;;;14.30;99.90;;;;;;6191000;23;20012;-83
2023/09/30 08:05:59;;;;;;;32.22;29.13;;;14.40;99.90;;;;;;6215641;23;20027;-83
2023/09/30 08:08:25;;;;;;;26.23;23.75;;;14.50;99.90;;;;;;6215272;23;20091;-82
2023/09/30 08:10:55;;;;;;;27.65;23.88;;;14.50;99.90;;;;;;6214492;23;20022;-82
2023/09/30 08:13:22;;;;;;;24.02;20.40;;;14.60;99.90;;;;;;6214607;23;20015;-81
2023/09/30 08:15:49;;;;;;;30.52;27.35;;;14.70;99.90;;;;;;6238510;23;20536;-82
2023/09/30 08:18:14;;;;;;;25.55;21.30;;;14.80;99.90;;;;;;6214395;23;20026;-82
2023/09/30 08:20:40;;;;;;;32.03;28.88;;;14.80;99.90;;;;;;6238406;23;20040;-82
2023/09/30 08:23:06;;;;;;;27.35;24.17;;;14.90;99.90;;;;;;6212727;23;20094;-82
2023/09/30 08:25:32;;;;;;;20.42;15.95;;;15.00;99.90;;;;;;6238101;23;20016;-82
2023/09/30 08:27:57;;;;;;;28.67;25.77;;;15.00;99.90;;;;;;6212238;23;20431;-82
2023/09/30 08:30:23;;;;;;;24.60;21.33;;;15.10;99.90;;;;;;6212101;23;20084;-82
2023/09/30 08:32:48;;;;;;;26.40;21.58;;;15.20;99.90;;;;;;6187035;23;20008;-82
2023/09/30 08:35:15;;;;;;;23.90;20.33;;;15.20;99.90;;;;;;6240224;23;20016;-82
2023/09/30 08:37:40;;;;;;;22.73;17.83;;;15.30;99.90;;;;;;6212451;23;20087;-82
2023/09/30 08:40:09;;;;;;;24.92;16.88;;;15.30;99.90;;;;;;6241318;23;20472;-82
2023/09/30 08:42:35;;;;;;;26.30;20.10;;;15.40;99.90;;;;;;6214032;23;20016;-82
2023/09/30 08:45:03;;;;;;;27.92;21.60;;;15.50;99.90;;;;;;6214139;23;20016;-82
2023/09/30 08:47:29;;;;;;;18.27;13.82;;;15.50;99.90;;;;;;6239436;23;20336;-82
2023/09/30 08:50:05;;;;;;;28.45;25.55;;;15.50;99.90;;;;;;6214265;23;20023;-82
2023/09/30 08:52:32;;;;;;;21.35;14.18;;;15.60;99.90;;;;;;6214043;23;20339;-81
2023/09/30 08:54:58;;;;;;;21.40;14.48;;;15.60;99.90;;;;;;6239188;23;20586;-82
2023/09/30 08:57:25;;;;;;;25.90;17.42;;;15.70;99.90;;;;;;6213704;23;20247;-82
2023/09/30 08:59:52;;;;;;;21.10;14.13;;;15.80;99.90;;;;;;6214241;23;20112;-82
2023/09/30 09:02:18;;;;;;;19.55;14.27;;;15.90;99.90;;;;;;6214116;23;20008;-82
2023/09/30 09:04:46;;;;;;;27.60;18.95;;;15.90;99.90;;;;;;6214157;23;20020;-84
2023/09/30 09:07:12;;;;;;;19.45;15.95;;;16.00;99.90;;;;;;6189580;23;20013;-83
2023/09/30 09:09:37;;;;;;;23.52;13.23;;;16.00;99.90;;;;;;6190380;23;20015;-82
2023/09/30 09:12:04;;;;;;;19.65;14.15;;;16.10;99.90;;;;;;6236945;23;20549;-82
2023/09/30 09:14:40;;;;;;;16.77;14.05;;;16.20;99.90;;;;;;6213562;23;20063;-82
2023/09/30 09:17:10;;;;;;;17.67;13.30;;;16.20;99.90;;;;;;6213004;23;20082;-83
2023/09/30 09:19:36;;;;;;;24.98;19.75;;;16.30;99.90;;;;;;6188356;23;20020;-82
2023/09/30 09:22:06;;;;;;;19.85;12.77;;;16.40;99.90;;;;;;6187375;23;20540;-82
2023/09/30 09:24:38;;;;;;;16.30;11.98;;;16.50;99.90;;;;;;6187695;23;20016;-82
2023/09/30 09:27:09;;;;;;;16.60;13.55;;;16.60;99.90;;;;;;6212354;23;20004;-82
2023/09/30 09:29:39;;;;;;;19.10;15.00;;;16.60;99.90;;;;;;6188272;23;20043;-81
2023/09/30 09:32:12;;;;;;;16.08;13.50;;;16.70;99.90;;;;;;6213453;23;20020;-82
2023/09/30 09:34:39;;;;;;;19.00;13.23;;;16.70;99.90;;;;;;6188937;23;20514;-84
2023/09/30 09:37:17;;;;;;;16.60;12.88;;;16.80;99.90;;;;;;6213533;23;20044;-84
2023/09/30 09:39:50;;;;;;;19.55;15.88;;;16.90;99.90;;;;;;6212921;23;20359;-82
2023/09/30 09:42:30;;;;;;;16.73;13.38;;;17.00;99.90;;;;;;6238909;23;20012;-82
2023/09/30 09:45:02;;;;;;;16.85;11.38;;;17.10;99.90;;;;;;6210698;23;20378;-82
2023/09/30 09:47:31;;;;;;;15.25;13.65;;;17.10;99.90;;;;;;6210081;23;20082;-82
2023/09/30 09:49:58;;;;;;;17.00;11.73;;;17.20;99.90;;;;;;6212308;23;20012;-82
2023/09/30 09:52:24;;;;;;;21.88;14.82;;;17.20;99.90;;;;;;6210662;23;20438;-82
2023/09/30 09:54:51;;;;;;;21.20;17.70;;;17.30;99.90;;;;;;6210477;23;20074;-81
2023/09/30 09:57:21;;;;;;;21.08;16.75;;;17.00;99.90;;;;;;6185393;23;20012;-82
2023/09/30 09:59:47;;;;;;;21.30;19.20;;;17.30;99.90;;;;;;6210798;23;20023;-82
2023/09/30 10:02:14;;;;;;;23.38;16.88;;;17.60;99.90;;;;;;6185798;23;20039;-82
2023/09/30 10:04:43;;;;;;;21.88;17.25;;;17.80;99.90;;;;;;6235804;23;20039;-82
2023/09/30 10:07:19;;;;;;;18.33;15.30;;;18.00;99.90;;;;;;6210045;23;20320;-83
2023/09/30 10:09:50;;;;;;;18.10;16.25;;;18.20;99.90;;;;;;6213509;23;20008;-83
2023/09/30 10:12:16;;;;;;;18.27;16.55;;;18.40;99.90;;;;;;6188131;23;20387;-82
2023/09/30 10:14:42;;;;;;;21.15;12.10;;;18.40;99.90;;;;;;6212796;23;20039;-81
2023/09/30 10:17:08;;;;;;;18.58;13.05;;;18.30;99.90;;;;;;6237080;23;20019;-81
2023/09/30 10:19:33;;;;;;;13.25;11.57;;;18.30;99.90;;;;;;6214113;23;20023;-82
2023/09/30 10:22:26;;;;;;;16.33;13.93;;;18.30;99.90;;;;;;6212143;23;20065;-82
2023/09/30 10:24:55;;;;;;;15.63;11.97;;;18.30;99.90;;;;;;6237809;23;20019;-82
2023/09/30 10:27:34;;;;;;;14.32;12.88;;;18.40;99.90;;;;;;6212201;23;20017;-82
2023/09/30 10:30:09;;;;;;;19.33;16.00;;;18.50;99.90;;;;;;6237959;23;20016;-82
2023/09/30 10:32:50;;;;;;;20.80;16.10;;;18.50;99.90;;;;;;6238225;23;20451;-83
2023/09/30 10:35:39;;;;;;;16.52;14.85;;;18.60;99.90;;;;;;6238129;23;20087;-82
2023/09/30 10:38:24;;;;;;;19.33;13.55;;;18.80;99.90;;;;;;6238278;23;20055;-82
2023/09/30 10:40:50;;;;;;;15.52;11.75;;;19.00;99.90;;;;;;6238493;23;20012;-82
2023/09/30 10:43:41;;;;;;;17.60;13.50;;;19.10;99.90;;;;;;6212716;23;20018;-82
2023/09/30 10:46:28;;;;;;;18.15;11.55;;;19.20;99.90;;;;;;6212174;23;20087;-82
2023/09/30 10:48:55;;;;;;;14.65;12.38;;;19.30;99.90;;;;;;6188279;23;20020;-82
2023/09/30 10:51:21;;;;;;;16.45;13.45;;;19.40;99.90;;;;;;6212909;23;20012;-82
2023/09/30 10:53:52;;;;;;;16.98;12.68;;;19.40;99.90;;;;;;6240521;23;20015;-82
2023/09/30 10:56:19;;;;;;;14.65;13.05;;;19.40;99.90;;;;;;6212194;23;20071;-82
2023/09/30 10:58:50;;;;;;;16.38;14.18;;;19.50;99.90;;;;;;6240217;23;20008;-82
2023/09/30 11:01:20;;;;;;;16.77;12.55;;;19.70;99.90;;;;;;6213523;23;20066;-79
2023/09/30 11:03:47;;;;;;;16.02;11.77;;;19.80;99.90;;;;;;6213112;23;20466;-83
2023/09/30 11:06:17;;;;;;;10.18;7.15;;;19.90;99.90;;;;;;6188978;23;20032;-81
2023/09/30 11:08:46;;;;;;;12.80;11.50;;;20.00;99.90;;;;;;6214505;23;20020;-83
2023/09/30 11:11:14;;;;;;;12.60;7.05;;;20.20;99.90;;;;;;6212260;23;20020;-83
2023/09/30 11:13:40;;;;;;;16.98;10.05;;;20.10;99.90;;;;;;6239490;23;20008;-82
2023/09/30 11:16:06;;;;;;;16.20;8.68;;;20.00;99.90;;;;;;6238292;23;20514;-83
2023/09/30 11:18:32;;;;;;;11.38;7.40;;;20.10;99.90;;;;;;6238663;23;20026;-83
2023/09/30 11:21:09;;;;;;;19.02;14.27;;;20.10;99.90;;;;;;6239598;23;20359;-83
2023/09/30 11:23:37;;;;;;;16.55;8.93;;;20.10;99.90;;;;;;6189638;23;20024;-83
2023/09/30 11:26:04;;;;;;;10.95;6.00;;;20.30;99.90;;;;;;6215085;23;20012;-83
2023/09/30 11:28:39;;;;;;;13.52;7.32;;;20.40;99.90;;;;;;6214709;23;20062;-82
2023/09/30 11:31:10;;;;;;;9.73;6.47;;;20.40;99.90;;;;;;6216111;23;20016;-82
2023/09/30 11:33:49;;;;;;;13.95;7.45;;;20.50;99.90;;;;;;6191094;23;20021;-82
2023/09/30 11:36:15;;;;;;;12.10;6.32;;;20.60;99.90;;;;;;6215330;23;20028;-82
2023/09/30 11:38:46;;;;;;;12.13;7.25;;;20.60;99.90;;;;;;6189995;23;20015;-82
2023/09/30 11:41:12;;;;;;;17.38;10.43;;;20.50;99.90;;;;;;6214812;23;20012;-81
2023/09/30 11:43:39;;;;;;;9.55;5.38;;;20.60;99.90;;;;;;6214728;23;20024;-82
2023/09/30 11:46:05;;;;;;;12.23;7.22;;;20.50;99.90;;;;;;6239668;23;20012;-82
2023/09/30 11:48:31;;;;;;;11.38;6.15;;;20.40;99.90;;;;;;6240108;23;20043;-82
2023/09/30 11:51:00;;;;;;;12.75;6.65;;;20.40;99.90;;;;;;6243299;23;20015;-82
2023/09/30 11:53:26;;;;;;;10.25;6.18;;;20.40;99.90;;;;;;6218384;23;20012;-82
2023/09/30 11:55:54;;;;;;;14.82;6.85;;;20.60;99.90;;;;;;6217018;23;20050;-82
2023/09/30 11:58:20;;;;;;;12.80;5.75;;;20.70;99.90;;;;;;6217258;23;20065;-82
2023/09/30 12:00:46;;;;;;;15.68;7.43;;;20.80;99.90;;;;;;6216934;23;20055;-82
2023/09/30 12:03:12;;;;;;;15.13;7.60;;;20.80;99.90;;;;;;6215648;23;20018;-81
2023/09/30 12:05:37;;;;;;;24.35;9.13;;;20.80;99.90;;;;;;6189735;23;20054;-82
2023/09/30 12:08:03;;;;;;;11.35;6.22;;;20.90;99.90;;;;;;6216405;23;20054;-81
2023/09/30 12:10:30;;;;;;;27.40;8.55;;;20.80;99.90;;;;;;6241772;23;20016;-81
2023/09/30 12:12:56;;;;;;;12.63;6.90;;;20.70;99.90;;;;;;6240272;23;20019;-81
2023/09/30 12:15:22;;;;;;;11.98;6.55;;;20.60;99.90;;;;;;6217353;23;20016;-82
2023/09/30 12:17:47;;;;;;;11.38;6.82;;;20.30;99.90;;;;;;6220363;23;20026;-82
2023/09/30 12:20:15;;;;;;;13.15;7.20;;;20.10;99.90;;;;;;6246148;23;20091;-83
2023/09/30 12:22:41;;;;;;;13.68;7.00;;;19.80;99.90;;;;;;6220514;23;20016;-83
2023/09/30 12:25:08;;;;;;;10.93;6.53;;;19.50;99.90;;;;;;6218629;23;20051;-82
2023/09/30 12:27:34;;;;;;;11.50;6.88;;;19.20;99.90;;;;;;6193158;23;20023;-81
2023/09/30 12:30:00;;;;;;;11.00;6.38;;;19.00;99.90;;;;;;6216851;23;20016;-82